Buffalo, WY (82834)

2:10 AM MDT on July 31, 2016 (GMT -0600)
Buffalo | | Change Station

Elev 4708 ft 44.34 °N, 106.70 °W | Updated 9 seconds ago

Partly Cloudy
Partly Cloudy
72.5 °F
Feels Like 77 °F
N
2.5
Wind Variable Wind from SW
Gusts 2.5 mph

Today
High -- | Low -- °F
--% Chance of Precip.
Yesterday
High -- | Low -- °F
Precip. -- in
Pressure 29.65 in
Visibility 10.0 miles
Clouds Few 12000 ft
Heat Index 77 °F
Dew Point 53 °F
Humidity 50%
Rainfall 0.00 in
Snow Depth Not available.
5:53 AM 8:32 PM
Waning Crescent, 8% visible
METAR KBYG 310753Z AUTO 16008KT 10SM FEW120 21/08 A2988 RMK AO2 SLP041 T02110078
Pressure 29.65 in
Visibility 10.0 miles
Clouds Few 12000 ft
Heat Index 77 °F
Dew Point 53 °F
Humidity 50%
Rainfall 0.00 in
Snow Depth Not available.
5:53 AM 8:32 PM
Waning Crescent, 8% visible
METAR KBYG 310753Z AUTO 16008KT 10SM FEW120 21/08 A2988 RMK AO2 SLP041 T02110078

10-Day Weather Forecast

Almanac

Astronomy

Jul. 31, 2016 Rise Set
Actual Time
Civil Twilight
Nautical Twilight
Astronomical Twilight
Moon
Length of Visible Light
Length of Day
Tomorrow will be .
, % of the Moon is Illuminated

Today's Extremes

State Highs State Lows

Community

WunderPhotos

Upload Photos

1,928,768 photos uploaded!

WunderBlog® & News

Nearby

Air Quality

  Air Quality AQ Index Pollutant
Not available.

Snow Depth

Station Depth Elevation

Earthquake Activity

City Distance Mag. Time & Date
Minimum magnitude displayed is 2.5.

Coastal Water Temperatures

Place Temperature

Stations

Nearby Weather Stations

Station Location Temp. Windchill Dew Point Humidity Wind Precip. Elev Updated Type
                   

Watches & Warnings

There are currently no watches in effect.